sensor_id;sensor_type;location;lat;lon;timestamp;pressure;altitude;pressure_sealevel;temperature;humidity
58967;BME280;44744;51.894;5.080;2022-07-29T00:03:07;101852.41;;;17.66;50.51
58967;BME280;44744;51.894;5.080;2022-07-29T00:04:07;101848.01;;;17.65;50.66
58967;BME280;44744;51.894;5.080;2022-07-29T00:05:08;101846.48;;;17.63;50.74
58967;BME280;44744;51.894;5.080;2022-07-29T00:06:09;101845.64;;;17.63;50.63
58967;BME280;44744;51.894;5.080;2022-07-29T00:07:09;101843.89;;;17.62;50.62
58967;BME280;44744;51.894;5.080;2022-07-29T00:08:10;101840.20;;;17.61;50.71
58967;BME280;44744;51.894;5.080;2022-07-29T00:09:10;101840.56;;;17.61;50.60
58967;BME280;44744;51.894;5.080;2022-07-29T00:10:23;101840.11;;;17.62;50.59
58967;BME280;44744;51.894;5.080;2022-07-29T00:11:24;101835.66;;;17.62;50.64
58967;BME280;44744;51.894;5.080;2022-07-29T00:12:24;101837.54;;;17.61;50.66
58967;BME280;44744;51.894;5.080;2022-07-29T00:15:35;101836.73;;;17.51;50.70
58967;BME280;44744;51.894;5.080;2022-07-29T00:17:16;101833.84;;;17.50;50.78
58967;BME280;44744;51.894;5.080;2022-07-29T00:18:42;101839.47;;;17.46;51.05
58967;BME280;44744;51.894;5.080;2022-07-29T00:19:57;101833.30;;;17.42;51.07
58967;BME280;44744;51.894;5.080;2022-07-29T00:21:11;101833.11;;;17.39;51.16
58967;BME280;44744;51.894;5.080;2022-07-29T00:33:39;101815.21;;;17.26;51.78
58967;BME280;44744;51.894;5.080;2022-07-29T00:35:51;101814.79;;;17.25;51.95
58967;BME280;44744;51.894;5.080;2022-07-29T00:36:53;101812.17;;;17.16;52.16
58967;BME280;44744;51.894;5.080;2022-07-29T00:38:21;101812.93;;;17.12;51.94
58967;BME280;44744;51.894;5.080;2022-07-29T00:39:40;101811.89;;;17.12;52.02
58967;BME280;44744;51.894;5.080;2022-07-29T00:41:51;101811.06;;;17.11;52.18
58967;BME280;44744;51.894;5.080;2022-07-29T00:42:56;101812.30;;;17.11;52.20
58967;BME280;44744;51.894;5.080;2022-07-29T00:44:12;101810.89;;;17.11;52.38
58967;BME280;44744;51.894;5.080;2022-07-29T01:06:17;101800.85;;;16.98;52.87
58967;BME280;44744;51.894;5.080;2022-07-29T01:07:18;101800.52;;;16.95;52.99
58967;BME280;44744;51.894;5.080;2022-07-29T01:08:38;101798.17;;;16.93;52.97
58967;BME280;44744;51.894;5.080;2022-07-29T01:09:46;101800.53;;;16.92;53.03
58967;BME280;44744;51.894;5.080;2022-07-29T01:11:01;101796.27;;;16.91;53.02
58967;BME280;44744;51.894;5.080;2022-07-29T01:12:17;101799.20;;;16.93;53.13
58967;BME280;44744;51.894;5.080;2022-07-29T01:13:24;101796.77;;;16.92;53.06
58967;BME280;44744;51.894;5.080;2022-07-29T01:14:35;101796.97;;;16.92;52.99
58967;BME280;44744;51.894;5.080;2022-07-29T01:16:04;101796.45;;;16.92;53.00
58967;BME280;44744;51.894;5.080;2022-07-29T01:18:43;101801.00;;;16.87;53.41
58967;BME280;44744;51.894;5.080;2022-07-29T01:21:27;101799.65;;;16.81;53.33
58967;BME280;44744;51.894;5.080;2022-07-29T01:29:06;101803.44;;;16.85;53.14
58967;BME280;44744;51.894;5.080;2022-07-29T01:30:10;101806.33;;;16.85;53.28
58967;BME280;44744;51.894;5.080;2022-07-29T01:31:15;101806.73;;;16.84;53.25
58967;BME280;44744;51.894;5.080;2022-07-29T01:32:19;101804.70;;;16.85;53.38
58967;BME280;44744;51.894;5.080;2022-07-29T01:33:23;101808.56;;;16.86;53.36
58967;BME280;44744;51.894;5.080;2022-07-29T01:36:27;101813.64;;;16.88;53.38
58967;BME280;44744;51.894;5.080;2022-07-29T01:39:02;101815.30;;;16.90;53.46
58967;BME280;44744;51.894;5.080;2022-07-29T01:41:34;101815.16;;;16.93;53.40
58967;BME280;44744;51.894;5.080;2022-07-29T01:42:42;101813.05;;;16.94;53.59
58967;BME280;44744;51.894;5.080;2022-07-29T01:43:53;101813.91;;;16.95;53.44
58967;BME280;44744;51.894;5.080;2022-07-29T01:46:25;101809.55;;;16.96;53.41
58967;BME280;44744;51.894;5.080;2022-07-29T01:49:10;101808.48;;;16.99;53.34
58967;BME280;44744;51.894;5.080;2022-07-29T01:50:25;101809.27;;;16.98;53.43
58967;BME280;44744;51.894;5.080;2022-07-29T01:53:00;101812.14;;;16.97;53.49
58967;BME280;44744;51.894;5.080;2022-07-29T01:55:24;101807.86;;;16.97;53.38
58967;BME280;44744;51.894;5.080;2022-07-29T01:56:39;101808.53;;;16.98;53.42
58967;BME280;44744;51.894;5.080;2022-07-29T01:59:35;101805.86;;;16.98;53.31
58967;BME280;44744;51.894;5.080;2022-07-29T02:02:10;101806.73;;;16.95;53.33
58967;BME280;44744;51.894;5.080;2022-07-29T02:03:13;101806.29;;;16.94;53.48
58967;BME280;44744;51.894;5.080;2022-07-29T02:04:20;101805.33;;;16.92;53.61
58967;BME280;44744;51.894;5.080;2022-07-29T02:05:22;101804.77;;;16.90;53.49
58967;BME280;44744;51.894;5.080;2022-07-29T02:06:29;101799.83;;;16.89;53.52
58967;BME280;44744;51.894;5.080;2022-07-29T02:07:31;101803.55;;;16.89;53.61
58967;BME280;44744;51.894;5.080;2022-07-29T02:08:33;101799.48;;;16.89;53.56
58967;BME280;44744;51.894;5.080;2022-07-29T02:09:35;101800.15;;;16.89;53.61
58967;BME280;44744;51.894;5.080;2022-07-29T02:10:38;101797.19;;;16.85;53.64
58967;BME280;44744;51.894;5.080;2022-07-29T02:11:43;101797.95;;;16.85;53.61
58967;BME280;44744;51.894;5.080;2022-07-29T02:12:56;101798.87;;;16.84;53.61
58967;BME280;44744;51.894;5.080;2022-07-29T02:14:05;101796.98;;;16.83;53.80
58967;BME280;44744;51.894;5.080;2022-07-29T02:15:17;101793.61;;;16.80;53.76
58967;BME280;44744;51.894;5.080;2022-07-29T02:16:25;101789.02;;;16.79;53.86
58967;BME280;44744;51.894;5.080;2022-07-29T02:17:37;101792.52;;;16.78;53.85
58967;BME280;44744;51.894;5.080;2022-07-29T02:18:43;101790.66;;;16.76;53.86
58967;BME280;44744;51.894;5.080;2022-07-29T02:19:46;101788.20;;;16.76;53.94
58967;BME280;44744;51.894;5.080;2022-07-29T02:20:48;101786.11;;;16.74;53.95
58967;BME280;44744;51.894;5.080;2022-07-29T02:21:54;101791.02;;;16.70;54.01
58967;BME280;44744;51.894;5.080;2022-07-29T02:22:58;101793.13;;;16.68;54.02
58967;BME280;44744;51.894;5.080;2022-07-29T02:25:12;101793.87;;;16.68;54.20
58967;BME280;44744;51.894;5.080;2022-07-29T02:26:22;101793.91;;;16.67;54.15
58967;BME280;44744;51.894;5.080;2022-07-29T02:27:33;101790.05;;;16.66;54.23
58967;BME280;44744;51.894;5.080;2022-07-29T02:28:35;101790.05;;;16.66;54.25
58967;BME280;44744;51.894;5.080;2022-07-29T02:29:49;101787.34;;;16.67;54.30
58967;BME280;44744;51.894;5.080;2022-07-29T02:30:55;101786.05;;;16.64;54.34
58967;BME280;44744;51.894;5.080;2022-07-29T02:31:58;101783.02;;;16.64;54.45
58967;BME280;44744;51.894;5.080;2022-07-29T02:33:09;101783.86;;;16.63;54.37
58967;BME280;44744;51.894;5.080;2022-07-29T02:34:15;101782.52;;;16.61;54.49
58967;BME280;44744;51.894;5.080;2022-07-29T02:35:20;101785.09;;;16.60;54.50
58967;BME280;44744;51.894;5.080;2022-07-29T02:36:23;101784.15;;;16.61;54.48
58967;BME280;44744;51.894;5.080;2022-07-29T02:37:26;101781.17;;;16.60;54.55
58967;BME280;44744;51.894;5.080;2022-07-29T02:38:28;101780.70;;;16.59;54.56
58967;BME280;44744;51.894;5.080;2022-07-29T02:39:30;101779.25;;;16.60;54.56
58967;BME280;44744;51.894;5.080;2022-07-29T02:40:34;101782.36;;;16.58;54.72
58967;BME280;44744;51.894;5.080;2022-07-29T02:41:47;101784.14;;;16.56;54.72
58967;BME280;44744;51.894;5.080;2022-07-29T02:42:47;101783.11;;;16.52;54.70
58967;BME280;44744;51.894;5.080;2022-07-29T02:43:52;101779.59;;;16.51;54.86
58967;BME280;44744;51.894;5.080;2022-07-29T02:44:54;101779.67;;;16.50;54.78
58967;BME280;44744;51.894;5.080;2022-07-29T02:46:04;101777.73;;;16.50;54.83
58967;BME280;44744;51.894;5.080;2022-07-29T02:48:27;101773.16;;;16.49;54.80
58967;BME280;44744;51.894;5.080;2022-07-29T02:50:57;101769.09;;;16.43;54.90
58967;BME280;44744;51.894;5.080;2022-07-29T02:52:04;101768.56;;;16.40;54.86
58967;BME280;44744;51.894;5.080;2022-07-29T02:53:33;101767.98;;;16.38;55.08
58967;BME280;44744;51.894;5.080;2022-07-29T02:55:44;101766.84;;;16.33;55.13
58967;BME280;44744;51.894;5.080;2022-07-29T02:56:49;101768.39;;;16.34;55.17
58967;BME280;44744;51.894;5.080;2022-07-29T02:58:02;101769.48;;;16.34;55.06
58967;BME280;44744;51.894;5.080;2022-07-29T02:59:11;101769.44;;;16.34;55.23
58967;BME280;44744;51.894;5.080;2022-07-29T03:00:17;101769.30;;;16.34;55.12
58967;BME280;44744;51.894;5.080;2022-07-29T03:01:24;101769.37;;;16.32;55.19
58967;BME280;44744;51.894;5.080;2022-07-29T03:02:27;101769.25;;;16.32;55.29
58967;BME280;44744;51.894;5.080;2022-07-29T03:03:32;101769.44;;;16.31;55.28
58967;BME280;44744;51.894;5.080;2022-07-29T03:04:34;101766.23;;;16.32;55.23
58967;BME280;44744;51.894;5.080;2022-07-29T03:05:35;101767.66;;;16.31;55.21
58967;BME280;44744;51.894;5.080;2022-07-29T03:06:37;101766.92;;;16.32;55.25
58967;BME280;44744;51.894;5.080;2022-07-29T03:07:40;101764.58;;;16.32;55.24
58967;BME280;44744;51.894;5.080;2022-07-29T03:08:44;101766.25;;;16.31;55.40
58967;BME280;44744;51.894;5.080;2022-07-29T03:09:45;101764.55;;;16.30;55.38
58967;BME280;44744;51.894;5.080;2022-07-29T03:10:46;101765.87;;;16.26;55.33
58967;BME280;44744;51.894;5.080;2022-07-29T03:11:47;101765.59;;;16.25;55.38
58967;BME280;44744;51.894;5.080;2022-07-29T03:12:48;101768.23;;;16.26;55.61
58967;BME280;44744;51.894;5.080;2022-07-29T03:13:48;101767.45;;;16.24;55.68
58967;BME280;44744;51.894;5.080;2022-07-29T03:14:56;101767.37;;;16.22;55.68
58967;BME280;44744;51.894;5.080;2022-07-29T03:15:59;101763.10;;;16.19;55.77
58967;BME280;44744;51.894;5.080;2022-07-29T03:17:02;101762.52;;;16.17;55.86
58967;BME280;44744;51.894;5.080;2022-07-29T03:18:03;101761.89;;;16.16;55.81
58967;BME280;44744;51.894;5.080;2022-07-29T03:19:05;101761.13;;;16.16;55.79
58967;BME280;44744;51.894;5.080;2022-07-29T03:20:09;101761.56;;;16.18;55.85
58967;BME280;44744;51.894;5.080;2022-07-29T03:21:15;101759.92;;;16.18;55.89
58967;BME280;44744;51.894;5.080;2022-07-29T03:22:25;101761.31;;;16.19;55.83
58967;BME280;44744;51.894;5.080;2022-07-29T03:23:26;101756.41;;;16.20;55.86
58967;BME280;44744;51.894;5.080;2022-07-29T03:24:51;101762.52;;;16.20;55.92
58967;BME280;44744;51.894;5.080;2022-07-29T03:26:01;101754.59;;;16.18;56.00
58967;BME280;44744;51.894;5.080;2022-07-29T03:27:03;101758.23;;;16.17;55.95
58967;BME280;44744;51.894;5.080;2022-07-29T03:28:07;101756.69;;;16.16;56.05
58967;BME280;44744;51.894;5.080;2022-07-29T03:29:10;101758.72;;;16.15;56.07
58967;BME280;44744;51.894;5.080;2022-07-29T03:30:15;101761.64;;;16.14;56.05
58967;BME280;44744;51.894;5.080;2022-07-29T03:31:26;101759.29;;;16.12;55.95
58967;BME280;44744;51.894;5.080;2022-07-29T03:32:35;101760.79;;;16.11;56.07
58967;BME280;44744;51.894;5.080;2022-07-29T03:33:36;101761.97;;;16.09;56.10
58967;BME280;44744;51.894;5.080;2022-07-29T03:34:36;101760.02;;;16.09;56.12
58967;BME280;44744;51.894;5.080;2022-07-29T03:35:40;101760.52;;;16.09;56.14
58967;BME280;44744;51.894;5.080;2022-07-29T03:36:43;101760.36;;;16.09;56.20
58967;BME280;44744;51.894;5.080;2022-07-29T03:37:58;101758.27;;;16.08;56.25
58967;BME280;44744;51.894;5.080;2022-07-29T03:39:00;101758.09;;;16.08;56.17
58967;BME280;44744;51.894;5.080;2022-07-29T03:40:03;101753.77;;;16.06;56.20
58967;BME280;44744;51.894;5.080;2022-07-29T03:41:09;101752.02;;;16.06;56.28
58967;BME280;44744;51.894;5.080;2022-07-29T03:42:13;101752.40;;;16.05;56.30
58967;BME280;44744;51.894;5.080;2022-07-29T03:43:19;101752.73;;;16.06;56.32
58967;BME280;44744;51.894;5.080;2022-07-29T03:44:21;101755.35;;;16.07;56.36
58967;BME280;44744;51.894;5.080;2022-07-29T03:45:24;101752.05;;;16.05;56.47
58967;BME280;44744;51.894;5.080;2022-07-29T03:46:26;101755.92;;;16.03;56.35
58967;BME280;44744;51.894;5.080;2022-07-29T03:47:29;101752.92;;;16.02;56.32
58967;BME280;44744;51.894;5.080;2022-07-29T03:48:33;101754.66;;;16.03;56.41
58967;BME280;44744;51.894;5.080;2022-07-29T03:49:36;101753.38;;;16.04;56.49
58967;BME280;44744;51.894;5.080;2022-07-29T03:50:37;101753.92;;;16.03;56.51
58967;BME280;44744;51.894;5.080;2022-07-29T03:51:38;101754.63;;;16.03;56.52
58967;BME280;44744;51.894;5.080;2022-07-29T03:52:39;101752.29;;;16.04;56.40
58967;BME280;44744;51.894;5.080;2022-07-29T03:53:40;101751.84;;;16.06;56.44
58967;BME280;44744;51.894;5.080;2022-07-29T03:54:40;101753.43;;;16.06;56.44
58967;BME280;44744;51.894;5.080;2022-07-29T03:55:48;101751.19;;;16.04;56.35
58967;BME280;44744;51.894;5.080;2022-07-29T03:56:52;101749.88;;;16.02;56.30
58967;BME280;44744;51.894;5.080;2022-07-29T03:57:54;101754.31;;;16.03;56.31
58967;BME280;44744;51.894;5.080;2022-07-29T03:58:57;101751.89;;;16.02;56.34
58967;BME280;44744;51.894;5.080;2022-07-29T03:59:59;101750.95;;;15.99;56.30
58967;BME280;44744;51.894;5.080;2022-07-29T04:01:01;101754.05;;;15.98;56.34
58967;BME280;44744;51.894;5.080;2022-07-29T04:02:06;101757.27;;;15.98;56.43
58967;BME280;44744;51.894;5.080;2022-07-29T04:03:09;101753.60;;;15.97;56.26
58967;BME280;44744;51.894;5.080;2022-07-29T04:04:10;101756.10;;;15.97;56.33
58967;BME280;44744;51.894;5.080;2022-07-29T04:05:14;101756.29;;;15.97;56.39
58967;BME280;44744;51.894;5.080;2022-07-29T04:06:15;101753.58;;;15.98;56.47
58967;BME280;44744;51.894;5.080;2022-07-29T04:07:15;101753.39;;;15.98;56.49
58967;BME280;44744;51.894;5.080;2022-07-29T04:08:16;101752.09;;;15.99;56.45
58967;BME280;44744;51.894;5.080;2022-07-29T04:09:16;101750.87;;;15.98;56.43
58967;BME280;44744;51.894;5.080;2022-07-29T04:10:17;101751.30;;;15.97;56.46
58967;BME280;44744;51.894;5.080;2022-07-29T04:11:17;101750.08;;;15.96;56.62
58967;BME280;44744;51.894;5.080;2022-07-29T04:12:18;101751.48;;;15.94;56.58
58967;BME280;44744;51.894;5.080;2022-07-29T04:13:20;101750.70;;;15.93;56.54
58967;BME280;44744;51.894;5.080;2022-07-29T04:14:20;101748.64;;;15.91;56.59
58967;BME280;44744;51.894;5.080;2022-07-29T04:15:21;101748.83;;;15.88;56.56
58967;BME280;44744;51.894;5.080;2022-07-29T04:16:21;101748.30;;;15.88;56.60
58967;BME280;44744;51.894;5.080;2022-07-29T04:17:21;101746.34;;;15.88;56.67
58967;BME280;44744;51.894;5.080;2022-07-29T04:18:22;101747.02;;;15.89;56.58
58967;BME280;44744;51.894;5.080;2022-07-29T04:19:22;101746.81;;;15.89;56.72
58967;BME280;44744;51.894;5.080;2022-07-29T04:20:22;101747.20;;;15.88;56.67
58967;BME280;44744;51.894;5.080;2022-07-29T04:21:22;101746.89;;;15.88;56.78
58967;BME280;44744;51.894;5.080;2022-07-29T04:22:23;101749.96;;;15.87;56.72
58967;BME280;44744;51.894;5.080;2022-07-29T04:23:23;101745.15;;;15.87;56.61
58967;BME280;44744;51.894;5.080;2022-07-29T04:24:24;101746.21;;;15.87;56.70
58967;BME280;44744;51.894;5.080;2022-07-29T04:25:24;101748.55;;;15.87;56.83
58967;BME280;44744;51.894;5.080;2022-07-29T04:26:25;101749.33;;;15.86;56.81
58967;BME280;44744;51.894;5.080;2022-07-29T04:27:25;101748.70;;;15.84;56.76
58967;BME280;44744;51.894;5.080;2022-07-29T04:28:25;101749.00;;;15.85;56.81
58967;BME280;44744;51.894;5.080;2022-07-29T04:29:26;101755.05;;;15.85;56.72
58967;BME280;44744;51.894;5.080;2022-07-29T04:30:26;101752.56;;;15.85;56.78
58967;BME280;44744;51.894;5.080;2022-07-29T04:31:27;101754.92;;;15.85;56.70
58967;BME280;44744;51.894;5.080;2022-07-29T04:32:28;101756.48;;;15.85;56.73
58967;BME280;44744;51.894;5.080;2022-07-29T04:33:28;101759.46;;;15.86;56.84
58967;BME280;44744;51.894;5.080;2022-07-29T04:34:28;101762.91;;;15.88;56.86
58967;BME280;44744;51.894;5.080;2022-07-29T04:35:36;101764.77;;;15.90;56.86
58967;BME280;44744;51.894;5.080;2022-07-29T04:36:37;101766.34;;;15.91;56.79
58967;BME280;44744;51.894;5.080;2022-07-29T04:37:37;101769.73;;;15.91;56.76
58967;BME280;44744;51.894;5.080;2022-07-29T04:38:38;101770.57;;;15.91;56.81
58967;BME280;44744;51.894;5.080;2022-07-29T04:39:39;101768.07;;;15.91;56.71
58967;BME280;44744;51.894;5.080;2022-07-29T04:41:09;101768.17;;;15.89;56.86
58967;BME280;44744;51.894;5.080;2022-07-29T04:43:52;101770.53;;;15.86;56.72
58967;BME280;44744;51.894;5.080;2022-07-29T04:44:52;101769.65;;;15.86;56.81
58967;BME280;44744;51.894;5.080;2022-07-29T04:45:53;101769.31;;;15.86;56.87
58967;BME280;44744;51.894;5.080;2022-07-29T04:46:57;101765.92;;;15.85;56.81
58967;BME280;44744;51.894;5.080;2022-07-29T04:47:57;101767.46;;;15.86;56.88
58967;BME280;44744;51.894;5.080;2022-07-29T04:48:57;101764.80;;;15.86;56.81
58967;BME280;44744;51.894;5.080;2022-07-29T04:49:58;101765.45;;;15.87;56.85
58967;BME280;44744;51.894;5.080;2022-07-29T04:50:58;101762.38;;;15.88;56.84
58967;BME280;44744;51.894;5.080;2022-07-29T04:51:59;101764.23;;;15.90;56.89
58967;BME280;44744;51.894;5.080;2022-07-29T04:52:59;101767.58;;;15.91;56.76
58967;BME280;44744;51.894;5.080;2022-07-29T04:54:00;101765.70;;;15.92;56.81
58967;BME280;44744;51.894;5.080;2022-07-29T04:55:00;101763.57;;;15.92;56.83
58967;BME280;44744;51.894;5.080;2022-07-29T04:56:02;101765.52;;;15.92;56.79
58967;BME280;44744;51.894;5.080;2022-07-29T04:57:02;101767.29;;;15.92;56.59
58967;BME280;44744;51.894;5.080;2022-07-29T04:58:02;101766.22;;;15.92;56.66
58967;BME280;44744;51.894;5.080;2022-07-29T04:59:03;101764.50;;;15.91;56.74
58967;BME280;44744;51.894;5.080;2022-07-29T05:00:08;101762.36;;;15.91;56.72
58967;BME280;44744;51.894;5.080;2022-07-29T05:01:09;101759.81;;;15.92;56.75
58967;BME280;44744;51.894;5.080;2022-07-29T05:02:09;101758.10;;;15.91;56.69
58967;BME280;44744;51.894;5.080;2022-07-29T05:03:12;101757.99;;;15.93;56.76
58967;BME280;44744;51.894;5.080;2022-07-29T05:04:12;101758.84;;;15.94;56.67
58967;BME280;44744;51.894;5.080;2022-07-29T05:05:21;101759.36;;;15.94;56.70
58967;BME280;44744;51.894;5.080;2022-07-29T05:06:22;101763.69;;;15.93;56.71
58967;BME280;44744;51.894;5.080;2022-07-29T05:07:22;101765.85;;;15.93;56.75
58967;BME280;44744;51.894;5.080;2022-07-29T05:08:22;101765.61;;;15.94;56.77
58967;BME280;44744;51.894;5.080;2022-07-29T05:09:23;101767.55;;;15.94;56.87
58967;BME280;44744;51.894;5.080;2022-07-29T05:10:41;101772.40;;;15.94;56.77
58967;BME280;44744;51.894;5.080;2022-07-29T05:11:41;101771.36;;;15.93;56.74
58967;BME280;44744;51.894;5.080;2022-07-29T05:12:42;101774.13;;;15.94;56.91
58967;BME280;44744;51.894;5.080;2022-07-29T05:13:42;101774.62;;;15.95;56.78
58967;BME280;44744;51.894;5.080;2022-07-29T05:14:45;101772.97;;;15.95;56.83
58967;BME280;44744;51.894;5.080;2022-07-29T05:15:45;101772.34;;;15.97;56.93
58967;BME280;44744;51.894;5.080;2022-07-29T05:16:46;101774.16;;;15.96;56.91
58967;BME280;44744;51.894;5.080;2022-07-29T05:17:46;101771.39;;;15.95;56.92
58967;BME280;44744;51.894;5.080;2022-07-29T05:18:46;101774.64;;;15.95;56.92
58967;BME280;44744;51.894;5.080;2022-07-29T05:19:50;101771.01;;;15.96;56.87
58967;BME280;44744;51.894;5.080;2022-07-29T05:20:50;101769.15;;;15.97;56.75
58967;BME280;44744;51.894;5.080;2022-07-29T05:21:51;101769.61;;;15.98;56.78
58967;BME280;44744;51.894;5.080;2022-07-29T05:22:55;101766.48;;;15.99;56.90
58967;BME280;44744;51.894;5.080;2022-07-29T05:23:56;101768.02;;;16.00;56.71
58967;BME280;44744;51.894;5.080;2022-07-29T05:24:57;101769.89;;;16.02;56.84
58967;BME280;44744;51.894;5.080;2022-07-29T05:25:57;101771.98;;;16.03;56.87
58967;BME280;44744;51.894;5.080;2022-07-29T05:27:06;101772.86;;;16.03;56.83
58967;BME280;44744;51.894;5.080;2022-07-29T05:28:06;101774.54;;;16.05;56.85
58967;BME280;44744;51.894;5.080;2022-07-29T05:29:09;101773.79;;;16.06;56.79
58967;BME280;44744;51.894;5.080;2022-07-29T05:30:10;101774.48;;;16.09;56.81
58967;BME280;44744;51.894;5.080;2022-07-29T05:31:10;101773.59;;;16.09;56.78
58967;BME280;44744;51.894;5.080;2022-07-29T05:32:12;101776.42;;;16.09;56.89
58967;BME280;44744;51.894;5.080;2022-07-29T05:33:12;101772.66;;;16.09;57.04
58967;BME280;44744;51.894;5.080;2022-07-29T05:34:13;101773.23;;;16.09;57.07
58967;BME280;44744;51.894;5.080;2022-07-29T05:35:14;101772.14;;;16.09;57.10
58967;BME280;44744;51.894;5.080;2022-07-29T05:36:17;101771.21;;;16.09;57.09
58967;BME280;44744;51.894;5.080;2022-07-29T05:37:19;101768.84;;;16.10;57.08
58967;BME280;44744;51.894;5.080;2022-07-29T05:38:19;101770.05;;;16.11;57.10
58967;BME280;44744;51.894;5.080;2022-07-29T05:39:28;101769.48;;;16.11;57.21
58967;BME280;44744;51.894;5.080;2022-07-29T05:40:29;101770.17;;;16.12;57.09
58967;BME280;44744;51.894;5.080;2022-07-29T05:41:32;101771.08;;;16.12;57.25
58967;BME280;44744;51.894;5.080;2022-07-29T05:42:32;101770.52;;;16.12;57.10
58967;BME280;44744;51.894;5.080;2022-07-29T05:43:33;101774.90;;;16.13;57.00
58967;BME280;44744;51.894;5.080;2022-07-29T05:44:37;101776.87;;;16.13;57.08
58967;BME280;44744;51.894;5.080;2022-07-29T05:45:38;101779.92;;;16.13;56.96
58967;BME280;44744;51.894;5.080;2022-07-29T05:46:39;101780.10;;;16.13;57.09
58967;BME280;44744;51.894;5.080;2022-07-29T05:47:40;101778.48;;;16.13;57.04
58967;BME280;44744;51.894;5.080;2022-07-29T05:48:40;101777.35;;;16.14;57.07
58967;BME280;44744;51.894;5.080;2022-07-29T05:49:41;101775.70;;;16.15;56.97
58967;BME280;44744;51.894;5.080;2022-07-29T05:50:41;101780.65;;;16.15;56.95
58967;BME280;44744;51.894;5.080;2022-07-29T05:51:42;101776.98;;;16.14;56.94
58967;BME280;44744;51.894;5.080;2022-07-29T05:52:44;101781.59;;;16.15;57.11
58967;BME280;44744;51.894;5.080;2022-07-29T05:53:45;101782.97;;;16.13;57.04
58967;BME280;44744;51.894;5.080;2022-07-29T05:54:45;101786.90;;;16.13;56.99
58967;BME280;44744;51.894;5.080;2022-07-29T05:55:46;101783.86;;;16.13;57.18
58967;BME280;44744;51.894;5.080;2022-07-29T05:56:47;101784.63;;;16.12;57.05
58967;BME280;44744;51.894;5.080;2022-07-29T05:58:02;101791.36;;;16.12;57.09
58967;BME280;44744;51.894;5.080;2022-07-29T05:59:03;101791.70;;;16.13;57.01
58967;BME280;44744;51.894;5.080;2022-07-29T06:00:04;101793.13;;;16.13;57.08
58967;BME280;44744;51.894;5.080;2022-07-29T06:01:07;101793.45;;;16.13;57.06
58967;BME280;44744;51.894;5.080;2022-07-29T06:02:08;101795.89;;;16.14;57.01
58967;BME280;44744;51.894;5.080;2022-07-29T06:03:10;101792.04;;;16.13;57.03
58967;BME280;44744;51.894;5.080;2022-07-29T06:04:11;101793.29;;;16.13;56.93
58967;BME280;44744;51.894;5.080;2022-07-29T06:05:11;101789.84;;;16.14;57.05
58967;BME280;44744;51.894;5.080;2022-07-29T06:06:32;101788.02;;;16.14;57.04
58967;BME280;44744;51.894;5.080;2022-07-29T06:09:02;101787.73;;;16.13;57.02
58967;BME280;44744;51.894;5.080;2022-07-29T06:10:02;101791.29;;;16.14;57.11
58967;BME280;44744;51.894;5.080;2022-07-29T06:11:04;101791.26;;;16.14;57.04
58967;BME280;44744;51.894;5.080;2022-07-29T06:12:05;101791.19;;;16.12;57.07
58967;BME280;44744;51.894;5.080;2022-07-29T06:13:05;101796.88;;;16.13;57.04
58967;BME280;44744;51.894;5.080;2022-07-29T06:14:05;101796.89;;;16.12;57.26
58967;BME280;44744;51.894;5.080;2022-07-29T06:15:06;101801.94;;;16.12;57.20
58967;BME280;44744;51.894;5.080;2022-07-29T06:16:07;101797.79;;;16.12;57.06
58967;BME280;44744;51.894;5.080;2022-07-29T06:17:07;101796.41;;;16.12;57.09
58967;BME280;44744;51.894;5.080;2022-07-29T06:18:08;101795.67;;;16.12;56.97
58967;BME280;44744;51.894;5.080;2022-07-29T06:19:11;101795.03;;;16.11;57.11
58967;BME280;44744;51.894;5.080;2022-07-29T06:20:11;101793.98;;;16.10;57.00
58967;BME280;44744;51.894;5.080;2022-07-29T06:21:12;101796.33;;;16.10;57.19
58967;BME280;44744;51.894;5.080;2022-07-29T06:22:15;101796.33;;;16.08;57.09
58967;BME280;44744;51.894;5.080;2022-07-29T06:23:15;101798.99;;;16.07;57.19
58967;BME280;44744;51.894;5.080;2022-07-29T06:24:16;101799.30;;;16.08;57.20
58967;BME280;44744;51.894;5.080;2022-07-29T06:25:17;101799.20;;;16.10;57.11
58967;BME280;44744;51.894;5.080;2022-07-29T06:26:33;101799.27;;;16.12;57.16
58967;BME280;44744;51.894;5.080;2022-07-29T06:27:34;101800.64;;;16.12;57.01
58967;BME280;44744;51.894;5.080;2022-07-29T06:28:42;101800.25;;;16.13;57.24
58967;BME280;44744;51.894;5.080;2022-07-29T06:29:42;101801.05;;;16.14;57.19
58967;BME280;44744;51.894;5.080;2022-07-29T06:30:47;101803.73;;;16.14;57.10
58967;BME280;44744;51.894;5.080;2022-07-29T06:45:54;101824.48;;;16.39;57.29
58967;BME280;44744;51.894;5.080;2022-07-29T06:47:02;101823.26;;;16.42;57.33
58967;BME280;44744;51.894;5.080;2022-07-29T06:48:02;101820.79;;;16.44;57.41
58967;BME280;44744;51.894;5.080;2022-07-29T06:49:09;101823.70;;;16.46;57.43
58967;BME280;44744;51.894;5.080;2022-07-29T06:50:09;101821.45;;;16.47;57.36
58967;BME280;44744;51.894;5.080;2022-07-29T06:51:23;101821.58;;;16.48;57.37
58967;BME280;44744;51.894;5.080;2022-07-29T06:52:24;101817.84;;;16.48;57.50
58967;BME280;44744;51.894;5.080;2022-07-29T06:53:24;101822.08;;;16.49;57.38
58967;BME280;44744;51.894;5.080;2022-07-29T06:54:32;101823.09;;;16.50;57.36
58967;BME280;44744;51.894;5.080;2022-07-29T06:56:20;101824.80;;;16.50;57.34
58967;BME280;44744;51.894;5.080;2022-07-29T06:57:28;101823.65;;;16.49;57.34
58967;BME280;44744;51.894;5.080;2022-07-29T06:58:31;101828.23;;;16.50;57.27
58967;BME280;44744;51.894;5.080;2022-07-29T06:59:32;101825.36;;;16.53;57.28
58967;BME280;44744;51.894;5.080;2022-07-29T07:00:32;101821.30;;;16.55;57.26
58967;BME280;44744;51.894;5.080;2022-07-29T07:01:32;101826.80;;;16.58;57.20